createdAt,value
2022-08-16T00:00:05.042Z,24.93
2022-08-16T00:03:13.396Z,24.88
2022-08-16T00:06:15.551Z,24.82
2022-08-16T00:09:21.104Z,24.80
2022-08-16T00:12:26.691Z,24.73
2022-08-16T00:15:51.759Z,24.71
2022-08-16T00:18:53.879Z,24.71
2022-08-16T00:22:03.048Z,24.66
2022-08-16T00:25:05.515Z,24.66
2022-08-16T00:28:11.063Z,24.63
2022-08-16T00:31:16.729Z,24.62
2022-08-16T00:34:43.516Z,24.58
2022-08-16T00:37:57.122Z,24.54
2022-08-16T00:40:50.646Z,24.51
2022-08-16T00:43:54.868Z,24.49
2022-08-16T00:47:11.930Z,24.59
2022-08-16T00:50:17.531Z,24.59
2022-08-16T00:53:26.559Z,24.61
2022-08-16T00:56:58.456Z,24.54
2022-08-16T00:59:57.438Z,24.58
2022-08-16T01:02:57.150Z,24.68
2022-08-16T01:06:39.932Z,24.56
2022-08-16T01:09:11.976Z,24.43
2022-08-16T01:12:26.576Z,24.34
2022-08-16T01:15:25.573Z,24.38
2022-08-16T01:18:40.617Z,24.37
2022-08-16T01:22:47.791Z,24.24
2022-08-16T01:25:33.893Z,24.16
2022-08-16T01:28:36.961Z,24.14
2022-08-16T01:31:42.743Z,24.10
2022-08-16T01:34:56.730Z,24.15
2022-08-16T01:38:00.283Z,24.36
2022-08-16T01:41:09.037Z,24.33
2022-08-16T01:44:14.513Z,24.15
2022-08-16T01:47:21.360Z,24.15
2022-08-16T01:50:43.472Z,24.14
2022-08-16T01:53:35.273Z,24.11
2022-08-16T01:56:51.645Z,24.09
2022-08-16T01:59:58.195Z,24.06
2022-08-16T02:03:04.895Z,23.90
2022-08-16T02:06:10.567Z,23.56
2022-08-16T02:09:17.630Z,23.13
2022-08-16T02:12:45.868Z,21.55
2022-08-16T02:15:30.527Z,20.40
2022-08-16T03:31:57.028Z,20.68
2022-08-16T03:35:04.408Z,20.86
2022-08-16T03:38:33.078Z,21.10
2022-08-16T03:41:25.288Z,21.00
2022-08-16T03:44:44.208Z,21.02
2022-08-16T03:47:39.089Z,21.19
2022-08-16T03:50:59.541Z,20.84
2022-08-16T03:54:01.000Z,20.95
2022-08-16T03:56:59.796Z,20.96
2022-08-16T04:00:05.889Z,20.80
2022-08-16T04:03:18.509Z,20.82
2022-08-16T04:06:25.049Z,20.59
2022-08-16T04:09:35.479Z,20.57
2022-08-16T04:12:53.626Z,20.66
2022-08-16T04:15:47.318Z,20.68
2022-08-16T04:19:02.568Z,20.66
2022-08-16T04:22:08.583Z,20.73
2022-08-16T04:25:12.986Z,20.88
2022-08-16T04:28:51.765Z,20.93
2022-08-16T04:31:27.587Z,21.17
2022-08-16T04:34:34.362Z,21.33
2022-08-16T04:37:42.157Z,21.26
2022-08-16T04:40:50.357Z,21.74
2022-08-16T04:43:56.285Z,21.80
2022-08-16T04:47:23.972Z,21.71
2022-08-16T04:50:10.980Z,21.66
2022-08-16T04:53:30.550Z,21.67
2022-08-16T04:56:35.792Z,21.76
2022-08-16T04:59:42.806Z,21.97
2022-08-16T05:02:54.898Z,21.97
2022-08-16T05:05:59.729Z,21.87
2022-08-16T05:09:03.994Z,22.01
2022-08-16T05:12:11.026Z,21.87
2022-08-16T05:15:17.152Z,21.84
2022-08-16T05:18:27.738Z,21.87
2022-08-16T05:21:38.318Z,21.66
2022-08-16T05:24:40.993Z,21.90
2022-08-16T05:27:48.604Z,21.84
2022-08-16T05:30:55.155Z,21.76
2022-08-16T05:33:59.946Z,21.88
2022-08-16T05:37:05.382Z,21.85
2022-08-16T05:40:13.217Z,21.78
2022-08-16T05:43:18.793Z,21.98
2022-08-16T05:46:29.820Z,22.05
2022-08-16T05:49:39.669Z,22.11
2022-08-16T05:52:45.703Z,22.25
2022-08-16T05:55:51.781Z,22.48
2022-08-16T05:58:57.353Z,22.58
2022-08-16T06:02:06.161Z,22.66
2022-08-16T06:05:11.142Z,22.66
2022-08-16T06:08:30.870Z,22.64
2022-08-16T06:11:25.652Z,22.56
2022-08-16T06:14:33.298Z,22.59
2022-08-16T06:17:43.164Z,22.49
2022-08-16T06:20:55.166Z,22.32
2022-08-16T06:23:56.523Z,22.23
2022-08-16T06:27:03.710Z,22.25
2022-08-16T06:30:09.546Z,22.19
2022-08-16T06:33:22.450Z,22.35
2022-08-16T06:36:26.792Z,22.33
2022-08-16T06:39:49.167Z,22.33
2022-08-16T06:43:01.020Z,22.39
2022-08-16T06:46:09.806Z,22.49
2022-08-16T06:49:22.462Z,22.52
2022-08-16T06:52:57.935Z,22.45
2022-08-16T06:55:35.517Z,22.45
2022-08-16T06:58:44.078Z,22.52
2022-08-16T07:01:54.775Z,22.59
2022-08-16T07:05:00.426Z,22.62
2022-08-16T07:08:06.052Z,22.65
2022-08-16T07:11:11.578Z,22.70
2022-08-16T07:14:26.365Z,22.79
2022-08-16T07:17:27.041Z,22.82
2022-08-16T07:20:47.048Z,22.79
2022-08-16T07:23:42.649Z,22.93
2022-08-16T07:26:48.639Z,22.86
2022-08-16T07:29:56.336Z,22.90
2022-08-16T07:33:02.690Z,23.00
2022-08-16T07:36:09.655Z,23.05
2022-08-16T07:39:16.870Z,23.12
2022-08-16T07:42:34.869Z,23.30
2022-08-16T07:45:29.594Z,23.25
2022-08-16T07:48:36.520Z,23.27
2022-08-16T07:51:43.083Z,23.17
2022-08-16T07:54:49.085Z,23.14
2022-08-16T07:58:01.090Z,23.14
2022-08-16T08:01:00.164Z,23.07
2022-08-16T08:03:59.849Z,22.93
2022-08-16T08:07:09.000Z,22.89
2022-08-16T08:10:18.771Z,22.89
2022-08-16T08:13:41.655Z,23.04
2022-08-16T08:16:31.613Z,23.16
2022-08-16T08:19:37.375Z,23.05
2022-08-16T08:22:45.871Z,23.10
2022-08-16T08:25:54.767Z,23.04
2022-08-16T08:29:01.707Z,22.97
2022-08-16T08:32:57.509Z,23.04
2022-08-16T08:35:14.547Z,23.24
2022-08-16T08:38:44.250Z,23.37
2022-08-16T08:44:43.413Z,23.67
2022-08-16T08:47:58.318Z,23.66
2022-08-16T08:50:58.766Z,23.82
2022-08-16T08:54:09.438Z,23.99
2022-08-16T08:57:15.947Z,24.21
2022-08-16T09:00:26.937Z,24.46
2022-08-16T09:03:33.793Z,24.66
2022-08-16T09:06:44.371Z,24.95
2022-08-16T09:09:49.261Z,25.33
2022-08-16T09:12:56.035Z,25.60
2022-08-16T09:16:04.930Z,25.85
2022-08-16T09:19:11.984Z,25.99
2022-08-16T09:22:20.142Z,25.97
2022-08-16T09:25:34.482Z,26.01
2022-08-16T09:29:06.722Z,26.00
2022-08-16T09:31:44.913Z,26.01
2022-08-16T09:34:50.946Z,26.08
2022-08-16T09:38:00.550Z,26.11
2022-08-16T09:41:06.477Z,26.13
2022-08-16T09:45:10.643Z,26.19
2022-08-16T09:47:23.612Z,26.31
2022-08-16T09:50:37.155Z,26.20
2022-08-16T09:53:37.627Z,26.18
2022-08-16T09:56:52.755Z,26.21
2022-08-16T09:59:56.811Z,26.35
2022-08-16T10:03:09.139Z,26.56
2022-08-16T10:06:13.330Z,26.61
2022-08-16T10:09:20.736Z,26.70
2022-08-16T10:12:45.530Z,26.81
2022-08-16T10:15:55.805Z,26.92
2022-08-16T10:19:06.609Z,26.90
2022-08-16T10:22:05.858Z,26.97
2022-08-16T10:25:12.506Z,27.05
2022-08-16T10:28:28.672Z,26.95
2022-08-16T10:31:45.529Z,27.06
2022-08-16T10:34:33.975Z,27.05
2022-08-16T10:37:39.149Z,27.05
2022-08-16T10:40:45.520Z,27.11
2022-08-16T10:43:52.220Z,26.98
2022-08-16T10:46:58.123Z,27.01
2022-08-16T10:50:03.160Z,27.03
2022-08-16T10:53:12.016Z,27.06
2022-08-16T10:56:52.916Z,27.17
2022-08-16T10:59:38.427Z,27.35
2022-08-16T11:02:58.395Z,27.41
2022-08-16T11:09:20.855Z,27.49
2022-08-16T11:12:14.746Z,27.51
2022-08-16T11:15:13.763Z,27.63
2022-08-16T11:18:48.281Z,27.67
2022-08-16T11:21:29.340Z,27.64
2022-08-16T11:24:42.937Z,27.72
2022-08-16T11:27:36.434Z,27.83
2022-08-16T11:36:35.694Z,28.04
2022-08-16T11:39:40.878Z,27.98
2022-08-16T11:42:46.385Z,27.95
2022-08-16T11:45:54.195Z,27.81
2022-08-16T11:48:53.650Z,27.76
2022-08-16T11:52:00.008Z,27.74
2022-08-16T11:55:05.601Z,27.69
2022-08-16T11:58:11.925Z,27.61
2022-08-16T12:01:20.612Z,27.53
2022-08-16T12:04:28.232Z,27.57
2022-08-16T12:07:35.542Z,27.59
2022-08-16T12:10:43.252Z,27.59
2022-08-16T12:13:50.116Z,27.60
2022-08-16T12:16:57.742Z,27.60
2022-08-16T12:20:07.525Z,27.61
2022-08-16T12:23:19.625Z,27.67
2022-08-16T12:26:26.229Z,27.80
2022-08-16T12:29:31.914Z,27.81
2022-08-16T12:32:54.580Z,27.85
2022-08-16T12:35:49.325Z,27.99
2022-08-16T12:38:58.225Z,28.05
2022-08-16T12:42:04.990Z,28.05
2022-08-16T12:45:10.694Z,28.13
2022-08-16T12:48:35.143Z,28.33
2022-08-16T12:51:58.677Z,28.43
2022-08-16T12:54:56.731Z,28.56
2022-08-16T12:58:03.420Z,28.91
2022-08-16T13:01:10.261Z,28.91
2022-08-16T13:04:21.304Z,29.08
2022-08-16T13:07:27.171Z,29.24
2022-08-16T13:10:37.292Z,29.24
2022-08-16T13:13:43.445Z,29.22
2022-08-16T13:16:49.773Z,29.09
2022-08-16T13:20:10.919Z,28.90
2022-08-16T13:23:18.169Z,28.68
2022-08-16T13:26:23.581Z,28.68
2022-08-16T13:29:39.983Z,28.57
2022-08-16T13:32:40.127Z,28.44
2022-08-16T13:35:43.760Z,28.27
2022-08-16T13:38:51.050Z,28.09
2022-08-16T13:41:57.576Z,27.97
2022-08-16T13:45:05.207Z,27.95
2022-08-16T13:48:24.550Z,27.99
2022-08-16T13:51:21.134Z,27.97
2022-08-16T13:54:31.378Z,27.93
2022-08-16T13:57:53.706Z,27.89
2022-08-16T14:00:43.218Z,27.91
2022-08-16T14:03:49.750Z,27.78
2022-08-16T14:06:56.466Z,27.72
2022-08-16T14:10:02.323Z,27.65
2022-08-16T14:13:19.918Z,27.67
2022-08-16T14:16:23.918Z,27.72
2022-08-16T14:19:25.266Z,27.74
2022-08-16T14:22:45.369Z,27.74
2022-08-16T14:25:54.115Z,27.82
2022-08-16T14:29:03.092Z,27.78
2022-08-16T14:32:09.186Z,27.83
2022-08-16T14:35:17.158Z,27.88
2022-08-16T14:38:24.827Z,27.84
2022-08-16T14:41:32.666Z,27.76
2022-08-16T14:44:38.395Z,27.69
2022-08-16T14:47:45.404Z,27.65
2022-08-16T14:50:51.883Z,27.64
2022-08-16T14:53:57.336Z,27.53
2022-08-16T14:57:03.599Z,27.45
2022-08-16T15:00:09.560Z,27.40
2022-08-16T15:03:19.104Z,27.43
2022-08-16T15:06:25.305Z,27.41
2022-08-16T15:09:32.061Z,27.24
2022-08-16T15:12:38.194Z,27.14
2022-08-16T15:15:44.876Z,27.18
2022-08-16T15:18:50.774Z,27.20
2022-08-16T15:21:57.531Z,27.33
2022-08-16T15:25:05.226Z,27.23
2022-08-16T15:28:30.747Z,27.22
2022-08-16T15:31:21.343Z,27.28
2022-08-16T15:34:26.932Z,27.32
2022-08-16T15:37:42.707Z,27.38
2022-08-16T15:40:57.516Z,27.20
2022-08-16T15:43:48.067Z,27.19
2022-08-16T15:46:58.646Z,27.22
2022-08-16T15:50:01.602Z,27.18
2022-08-16T15:53:12.438Z,27.11
2022-08-16T15:56:18.167Z,27.22
2022-08-16T15:59:27.093Z,27.33
2022-08-16T16:02:34.477Z,27.34
2022-08-16T16:05:40.191Z,27.18
2022-08-16T16:08:46.065Z,27.14
2022-08-16T16:11:52.086Z,27.07
2022-08-16T16:15:00.547Z,27.13
2022-08-16T16:18:09.505Z,27.07
2022-08-16T16:21:22.134Z,26.84
2022-08-16T16:24:30.722Z,26.58
2022-08-16T16:27:35.228Z,26.54
2022-08-16T16:30:44.915Z,26.40
2022-08-16T16:33:50.331Z,26.31
2022-08-16T16:36:55.958Z,26.33
2022-08-16T16:40:01.427Z,26.34
2022-08-16T16:43:08.077Z,26.30
2022-08-16T16:46:41.091Z,26.33
2022-08-16T16:49:22.914Z,26.34
2022-08-16T16:52:43.242Z,26.30
2022-08-16T16:55:35.925Z,26.25
2022-08-16T16:59:01.718Z,26.22
2022-08-16T17:02:41.203Z,26.17
2022-08-16T17:05:13.773Z,26.02
2022-08-16T17:08:22.875Z,25.86
2022-08-16T17:11:37.497Z,25.77
2022-08-16T17:14:42.815Z,25.64
2022-08-16T17:20:55.254Z,25.52
2022-08-16T17:24:01.092Z,25.55
2022-08-16T17:27:07.608Z,25.61
2022-08-16T17:30:17.096Z,25.51
2022-08-16T17:33:24.809Z,25.48
2022-08-16T17:36:36.343Z,25.57
2022-08-16T17:39:26.422Z,25.66
2022-08-16T17:40:05.929Z,25.69
2022-08-16T17:42:47.963Z,25.71
2022-08-16T17:45:53.083Z,25.62
2022-08-16T17:48:59.338Z,25.37
2022-08-16T17:52:05.590Z,25.26
2022-08-16T17:55:12.377Z,25.51
2022-08-16T17:58:22.902Z,25.58
2022-08-16T18:01:25.208Z,25.49
2022-08-16T18:04:49.502Z,25.66
2022-08-16T18:07:38.774Z,25.61
2022-08-16T18:10:44.900Z,25.05
2022-08-16T18:13:53.108Z,25.22
2022-08-16T18:16:58.324Z,25.08
2022-08-16T18:20:04.076Z,25.21
2022-08-16T18:23:09.936Z,25.15
2022-08-16T18:26:18.164Z,25.16
2022-08-16T18:29:24.499Z,25.22
2022-08-16T18:32:29.831Z,25.19
2022-08-16T18:35:36.220Z,25.18
2022-08-16T18:38:41.828Z,25.22
2022-08-16T18:41:47.389Z,25.28
2022-08-16T18:44:57.493Z,24.60
2022-08-16T18:48:03.514Z,24.50
2022-08-16T18:51:17.494Z,24.51
2022-08-16T18:54:18.492Z,24.56
2022-08-16T18:57:24.709Z,24.46
2022-08-16T19:00:32.904Z,24.60
2022-08-16T19:03:45.801Z,24.48
2022-08-16T19:06:52.749Z,24.46
2022-08-16T19:09:59.497Z,24.39
2022-08-16T19:13:05.293Z,24.37
2022-08-16T19:16:12.672Z,24.49
2022-08-16T19:19:18.380Z,24.42
2022-08-16T19:22:39.418Z,24.55
2022-08-16T19:25:47.090Z,24.57
2022-08-16T19:28:59.964Z,24.62
2022-08-16T19:32:01.595Z,24.44
2022-08-16T19:35:10.689Z,24.38
2022-08-16T19:38:16.291Z,24.34
2022-08-16T19:41:21.455Z,24.41
2022-08-16T19:44:26.633Z,24.51
2022-08-16T19:47:32.125Z,24.54
2022-08-16T19:50:38.489Z,24.47
2022-08-16T19:53:45.716Z,24.47
2022-08-16T19:56:51.384Z,24.47
2022-08-16T19:59:59.383Z,23.99
2022-08-16T20:03:07.123Z,23.69
2022-08-16T20:06:12.843Z,23.73
2022-08-16T20:09:20.525Z,24.02
2022-08-16T20:12:30.362Z,24.01
2022-08-16T20:15:41.043Z,24.01
2022-08-16T20:18:44.317Z,24.11
2022-08-16T20:21:50.089Z,23.91
2022-08-16T20:24:55.455Z,24.12
2022-08-16T20:28:02.967Z,24.10
2022-08-16T20:31:08.689Z,24.18
2022-08-16T20:34:14.085Z,23.92
2022-08-16T20:37:20.031Z,23.99
2022-08-16T20:40:34.500Z,23.85
2022-08-16T20:43:35.215Z,23.89
2022-08-16T20:46:40.455Z,23.78
2022-08-16T20:49:46.431Z,23.76
2022-08-16T20:52:52.389Z,23.84
2022-08-16T20:55:58.426Z,23.91
2022-08-16T20:59:04.834Z,23.98
2022-08-16T21:02:11.644Z,23.72
2022-08-16T21:05:20.370Z,23.60
2022-08-16T21:08:50.185Z,23.61
2022-08-16T21:11:34.847Z,23.21
2022-08-16T21:14:41.899Z,23.10
2022-08-16T21:17:48.123Z,23.02
2022-08-16T21:20:54.629Z,23.03
2022-08-16T21:24:01.570Z,23.01
2022-08-16T21:27:07.755Z,23.07
2022-08-16T21:30:15.261Z,23.06
2022-08-16T21:33:28.672Z,23.07
2022-08-16T21:36:36.324Z,23.08
2022-08-16T21:39:42.387Z,23.11
2022-08-16T21:42:47.692Z,23.04
2022-08-16T21:45:55.567Z,23.10
2022-08-16T21:49:00.621Z,23.09
2022-08-16T21:52:06.522Z,23.08
2022-08-16T21:55:11.704Z,22.99
2022-08-16T21:58:17.142Z,23.05
2022-08-16T22:01:22.869Z,23.11
2022-08-16T22:04:37.785Z,23.01
2022-08-16T22:07:37.047Z,22.98
2022-08-16T22:11:05.828Z,22.87
2022-08-16T22:13:57.798Z,22.89
2022-08-16T22:17:01.732Z,22.87
2022-08-16T22:20:07.940Z,22.73
2022-08-16T22:23:21.822Z,22.78
2022-08-16T22:26:30.838Z,22.66
2022-08-16T22:29:35.292Z,22.74
2022-08-16T22:32:43.353Z,22.63
2022-08-16T22:35:48.940Z,22.59
2022-08-16T22:38:57.540Z,22.39
2022-08-16T22:42:00.888Z,22.34
2022-08-16T22:45:06.261Z,22.27
2022-08-16T22:48:12.143Z,22.31
2022-08-16T22:51:17.634Z,22.23
2022-08-16T22:54:48.050Z,22.11
2022-08-16T22:57:31.538Z,22.06
2022-08-16T23:00:40.340Z,22.09
2022-08-16T23:03:46.415Z,22.09
2022-08-16T23:06:52.226Z,22.19
2022-08-16T23:09:58.847Z,22.17
2022-08-16T23:13:11.709Z,22.23
2022-08-16T23:16:20.627Z,22.16
2022-08-16T23:19:27.487Z,22.14
2022-08-16T23:22:33.161Z,22.06
2022-08-16T23:25:44.976Z,21.93
2022-08-16T23:28:50.334Z,21.95
2022-08-16T23:31:56.966Z,22.15
2022-08-16T23:35:03.117Z,22.07
2022-08-16T23:38:09.504Z,22.26
2022-08-16T23:41:17.617Z,22.45
2022-08-16T23:44:42.291Z,22.05
2022-08-16T23:47:31.470Z,21.94
2022-08-16T23:50:39.011Z,21.91
2022-08-16T23:53:48.119Z,21.82
2022-08-16T23:56:53.563Z,21.81
